createdAt,value
2023-01-29T00:02:24.322Z,0.38
2023-01-29T00:04:51.201Z,0.08
2023-01-29T00:07:17.937Z,-0.14
2023-01-29T00:09:44.777Z,-0.33
2023-01-29T00:12:11.956Z,-0.49
2023-01-29T00:14:38.792Z,-0.62
2023-01-29T00:17:05.747Z,-0.73
2023-01-29T00:19:32.674Z,-0.82
2023-01-29T00:21:59.389Z,-0.89
2023-01-29T00:24:26.324Z,-0.96
2023-01-29T00:26:53.199Z,-1.04
2023-01-29T00:29:20.234Z,-1.10
2023-01-29T00:31:47.566Z,-1.14
2023-01-29T00:34:14.552Z,-1.18
2023-01-29T00:36:41.593Z,-1.21
2023-01-29T00:39:11.143Z,-1.24
2023-01-29T00:41:56.948Z,-1.12
2023-01-29T00:44:42.459Z,0.46
2023-01-29T00:47:29.746Z,2.37
2023-01-29T00:49:56.997Z,3.74
2023-01-29T00:52:24.284Z,4.52
2023-01-29T00:54:55.001Z,5.08
2023-01-29T00:57:31.302Z,5.54
2023-01-29T00:59:59.299Z,5.90
2023-01-29T01:02:44.993Z,6.17
2023-01-29T01:05:14.631Z,6.18
2023-01-29T01:07:41.828Z,5.02
2023-01-29T01:10:22.731Z,3.72
2023-01-29T01:12:51.575Z,2.67
2023-01-29T01:15:19.085Z,1.89
2023-01-29T01:17:46.295Z,1.25
2023-01-29T01:20:14.039Z,0.73
2023-01-29T01:22:41.885Z,0.28
2023-01-29T01:25:09.645Z,-0.11
2023-01-29T01:27:41.432Z,-0.44
2023-01-29T01:30:13.033Z,-0.68
2023-01-29T01:32:40.564Z,-0.90
2023-01-29T01:35:08.128Z,-1.06
2023-01-29T01:37:38.165Z,-1.20
2023-01-29T01:40:12.929Z,-1.32
2023-01-29T01:42:40.685Z,-1.43
2023-01-29T01:45:10.565Z,-1.49
2023-01-29T01:47:40.767Z,-0.67
2023-01-29T01:50:14.241Z,1.14
2023-01-29T01:52:44.491Z,2.65
2023-01-29T01:55:13.765Z,3.64
2023-01-29T01:57:42.568Z,4.39
2023-01-29T02:00:10.767Z,4.93
2023-01-29T02:02:58.173Z,5.35
2023-01-29T02:05:43.830Z,5.68
2023-01-29T02:08:29.645Z,4.70
2023-01-29T02:10:56.887Z,3.16
2023-01-29T02:13:24.124Z,2.06
2023-01-29T02:15:50.969Z,1.26
2023-01-29T02:18:19.566Z,0.70
2023-01-29T02:20:57.766Z,0.25
2023-01-29T02:23:57.032Z,-0.15
2023-01-29T02:26:28.281Z,-0.54
2023-01-29T02:29:20.326Z,-0.80
2023-01-29T02:31:51.396Z,-1.05
2023-01-29T02:34:18.325Z,-1.22
2023-01-29T02:36:54.758Z,-1.36
2023-01-29T02:39:30.325Z,-1.49
2023-01-29T02:42:00.546Z,-1.59
2023-01-29T02:44:33.443Z,-1.67
2023-01-29T02:47:11.445Z,-1.75
2023-01-29T02:49:43.403Z,-1.80
2023-01-29T02:52:15.713Z,-1.85
2023-01-29T02:54:45.763Z,-1.89
2023-01-29T02:57:23.565Z,-1.92
2023-01-29T02:59:59.723Z,-1.96
2023-01-29T03:02:31.397Z,-1.98
2023-01-29T03:05:01.608Z,-2.00
2023-01-29T03:07:46.723Z,-2.00
2023-01-29T03:10:20.557Z,-2.02
2023-01-29T03:12:50.208Z,-2.03
2023-01-29T03:15:19.457Z,-2.03
2023-01-29T03:17:46.198Z,-2.04
2023-01-29T03:20:17.807Z,-2.05
2023-01-29T03:22:47.291Z,-1.93
2023-01-29T03:25:34.692Z,-0.62
2023-01-29T03:28:22.299Z,1.37
2023-01-29T03:31:11.599Z,2.77
2023-01-29T03:33:44.659Z,3.70
2023-01-29T03:36:21.644Z,4.36
2023-01-29T03:38:48.484Z,4.87
2023-01-29T03:41:23.333Z,4.89
2023-01-29T03:43:55.364Z,3.69
2023-01-29T03:46:29.690Z,2.48
2023-01-29T03:49:01.915Z,1.58
2023-01-29T03:51:32.590Z,0.89
2023-01-29T03:54:06.150Z,0.39
2023-01-29T03:56:32.914Z,-0.02
2023-01-29T03:59:02.755Z,-0.32
2023-01-29T04:01:32.351Z,-0.56
2023-01-29T04:03:59.218Z,-0.76
2023-01-29T04:06:29.501Z,-0.94
2023-01-29T04:08:59.230Z,-1.09
2023-01-29T04:11:27.771Z,-1.24
2023-01-29T04:13:54.554Z,-1.35
2023-01-29T04:16:25.320Z,-1.44
2023-01-29T04:18:52.867Z,-1.52
2023-01-29T04:21:19.676Z,-1.59
2023-01-29T04:23:46.580Z,-1.64
2023-01-29T04:26:34.349Z,-1.68
2023-01-29T04:29:16.957Z,-1.72
2023-01-29T04:32:01.509Z,-1.74
2023-01-29T04:34:29.136Z,-1.77
2023-01-29T04:37:11.242Z,-1.78
2023-01-29T04:39:49.075Z,-1.79
2023-01-29T04:42:39.549Z,-1.81
2023-01-29T04:45:16.246Z,-1.82
2023-01-29T04:47:50.348Z,-1.82
2023-01-29T04:50:17.398Z,-1.83
2023-01-29T04:52:50.274Z,-1.83
2023-01-29T04:55:36.349Z,-1.83
2023-01-29T04:58:06.090Z,-1.84
2023-01-29T05:00:53.670Z,-1.84
2023-01-29T05:03:22.876Z,-1.85
2023-01-29T05:05:51.283Z,-1.85
2023-01-29T05:08:19.831Z,-1.86
2023-01-29T05:10:48.836Z,-1.86
2023-01-29T05:13:16.257Z,-1.86
2023-01-29T05:15:47.676Z,-1.86
2023-01-29T05:18:14.795Z,-1.86
2023-01-29T05:20:43.670Z,-1.87
2023-01-29T05:23:16.110Z,-1.87
2023-01-29T05:25:43.160Z,-1.86
2023-01-29T05:28:19.539Z,-1.85
2023-01-29T05:30:47.907Z,-1.85
2023-01-29T05:33:16.738Z,-1.84
2023-01-29T05:35:44.099Z,-1.83
2023-01-29T05:38:11.536Z,-1.83
2023-01-29T05:40:38.733Z,-1.83
2023-01-29T05:43:07.017Z,-1.82
2023-01-29T05:45:34.061Z,-1.81
2023-01-29T05:48:01.004Z,-1.82
2023-01-29T05:50:28.252Z,-1.81
2023-01-29T05:52:59.087Z,-1.82
2023-01-29T05:55:25.933Z,-1.83
2023-01-29T05:57:52.767Z,-1.84
2023-01-29T06:00:19.810Z,-1.84
2023-01-29T06:02:46.878Z,-1.85
2023-01-29T06:05:13.738Z,-1.84
2023-01-29T06:07:45.594Z,-1.85
2023-01-29T06:10:13.435Z,-1.85
2023-01-29T06:12:40.900Z,-1.85
2023-01-29T06:15:08.036Z,-1.46
2023-01-29T06:17:34.785Z,0.23
2023-01-29T06:20:01.621Z,1.93
2023-01-29T06:22:28.338Z,3.16
2023-01-29T06:24:55.621Z,4.05
2023-01-29T06:27:22.661Z,4.70
2023-01-29T06:29:49.575Z,5.15
2023-01-29T06:32:16.685Z,5.16
2023-01-29T06:34:43.781Z,3.95
2023-01-29T06:37:10.507Z,2.80
2023-01-29T06:39:37.356Z,1.92
2023-01-29T06:42:04.290Z,1.24
2023-01-29T06:44:31.129Z,0.73
2023-01-29T06:46:57.884Z,0.31
2023-01-29T06:49:24.814Z,-0.05
2023-01-29T06:51:51.550Z,-0.34
2023-01-29T06:54:18.287Z,-0.57
2023-01-29T06:56:45.021Z,-0.76
2023-01-29T06:59:12.965Z,-0.92
2023-01-29T07:01:41.702Z,-1.07
2023-01-29T07:04:08.524Z,-1.19
2023-01-29T07:06:36.182Z,-1.28
2023-01-29T07:09:05.995Z,-1.37
2023-01-29T07:11:34.375Z,-1.44
2023-01-29T07:14:01.102Z,-1.49
2023-01-29T07:16:27.952Z,-1.52
2023-01-29T07:18:54.912Z,-1.54
2023-01-29T07:21:21.738Z,-1.56
2023-01-29T07:23:48.782Z,-1.58
2023-01-29T07:26:16.230Z,-1.59
2023-01-29T07:28:43.167Z,-1.59
2023-01-29T07:31:12.424Z,-1.59
2023-01-29T07:33:39.312Z,-1.57
2023-01-29T07:36:09.933Z,-1.55
2023-01-29T07:38:36.686Z,-1.54
2023-01-29T07:41:03.833Z,-1.53
2023-01-29T07:43:30.875Z,-1.26
2023-01-29T07:46:01.759Z,0.33
2023-01-29T07:48:28.646Z,2.11
2023-01-29T07:50:56.507Z,3.37
2023-01-29T07:53:23.269Z,4.20
2023-01-29T07:55:50.097Z,4.83
2023-01-29T07:58:17.097Z,5.35
2023-01-29T08:00:44.621Z,5.61
2023-01-29T08:03:12.864Z,4.70
2023-01-29T08:05:40.219Z,3.46
2023-01-29T08:08:07.996Z,2.53
2023-01-29T08:10:35.633Z,1.82
2023-01-29T08:13:03.909Z,1.30
2023-01-29T08:15:31.538Z,0.89
2023-01-29T08:17:58.659Z,0.54
2023-01-29T08:20:27.347Z,0.26
2023-01-29T08:23:01.738Z,0.04
2023-01-29T08:25:29.494Z,-0.15
2023-01-29T08:27:58.097Z,-0.30
2023-01-29T08:30:29.028Z,-0.43
2023-01-29T08:32:56.153Z,-0.54
2023-01-29T08:35:23.669Z,-0.64
2023-01-29T08:38:00.727Z,-0.73
2023-01-29T08:40:29.026Z,-0.81
2023-01-29T08:43:02.022Z,-0.86
2023-01-29T08:45:30.822Z,-0.88
2023-01-29T08:47:57.794Z,-0.90
2023-01-29T08:50:25.319Z,-0.91
2023-01-29T08:52:52.135Z,-0.94
2023-01-29T08:55:19.214Z,-0.96
2023-01-29T08:57:46.350Z,-0.94
2023-01-29T09:00:13.640Z,0.03
2023-01-29T09:02:40.661Z,1.75
2023-01-29T09:05:08.219Z,3.13
2023-01-29T09:07:35.021Z,4.10
2023-01-29T09:10:02.410Z,4.76
2023-01-29T09:12:29.701Z,5.30
2023-01-29T09:14:56.536Z,5.69
2023-01-29T09:17:23.836Z,5.97
2023-01-29T09:19:52.522Z,5.42
2023-01-29T09:22:19.983Z,4.08
2023-01-29T09:24:47.226Z,2.95
2023-01-29T09:27:14.282Z,2.13
2023-01-29T09:29:41.217Z,1.52
2023-01-29T09:32:08.266Z,1.09
2023-01-29T09:34:35.662Z,0.76
2023-01-29T09:37:03.056Z,0.50
2023-01-29T09:39:30.138Z,0.32
2023-01-29T09:42:03.284Z,0.19
2023-01-29T09:44:36.184Z,0.05
2023-01-29T09:47:06.587Z,-0.09
2023-01-29T09:49:38.292Z,-0.23
2023-01-29T09:52:17.842Z,-0.35
2023-01-29T09:55:00.000Z,-0.43
2023-01-29T09:57:34.108Z,-0.48
2023-01-29T10:00:01.052Z,-0.51
2023-01-29T10:02:57.516Z,-0.51
2023-01-29T10:05:29.961Z,-0.51
2023-01-29T10:07:58.169Z,-0.49
2023-01-29T10:10:40.435Z,-0.48
2023-01-29T10:13:26.531Z,-0.48
2023-01-29T10:16:05.151Z,-0.51
2023-01-29T10:18:58.458Z,-0.55
2023-01-29T10:21:37.978Z,-0.56
2023-01-29T10:24:16.044Z,-0.54
2023-01-29T10:26:43.107Z,-0.50
2023-01-29T10:29:15.876Z,-0.24
2023-01-29T10:31:43.747Z,1.27
2023-01-29T10:34:16.826Z,3.03
2023-01-29T10:36:45.338Z,4.50
2023-01-29T10:39:16.127Z,5.52
2023-01-29T10:41:58.937Z,6.33
2023-01-29T10:44:49.099Z,7.05
2023-01-29T10:47:25.249Z,6.44
2023-01-29T10:49:55.012Z,5.41
2023-01-29T10:52:40.990Z,4.53
2023-01-29T10:55:26.700Z,3.74
2023-01-29T10:57:54.018Z,3.15
2023-01-29T11:00:30.883Z,2.69
2023-01-29T11:02:58.708Z,2.27
2023-01-29T11:05:44.189Z,1.88
2023-01-29T11:08:31.252Z,1.47
2023-01-29T11:10:58.506Z,1.12
2023-01-29T11:13:28.137Z,0.90
2023-01-29T11:15:55.449Z,0.72
2023-01-29T11:18:22.200Z,0.57
2023-01-29T11:20:59.791Z,0.44
2023-01-29T11:23:29.267Z,0.34
2023-01-29T11:25:57.971Z,0.26
2023-01-29T11:28:40.085Z,0.22
2023-01-29T11:31:17.981Z,0.19
2023-01-29T11:33:45.838Z,0.15
2023-01-29T11:36:21.266Z,0.09
2023-01-29T11:38:48.122Z,0.04
2023-01-29T11:41:19.013Z,-0.01
2023-01-29T11:43:45.816Z,-0.05
2023-01-29T11:46:13.800Z,-0.08
2023-01-29T11:48:41.577Z,-0.06
2023-01-29T11:51:09.080Z,-0.01
2023-01-29T11:53:38.891Z,0.08
2023-01-29T11:56:13.929Z,0.16
2023-01-29T11:58:42.140Z,0.20
2023-01-29T12:01:10.381Z,0.22
2023-01-29T12:03:40.919Z,0.25
2023-01-29T12:06:13.327Z,0.27
2023-01-29T12:08:40.514Z,0.29
2023-01-29T12:11:09.091Z,0.32
2023-01-29T12:13:36.728Z,0.43
2023-01-29T12:16:22.795Z,0.56
2023-01-29T12:19:16.423Z,0.76
2023-01-29T12:22:10.139Z,1.06
2023-01-29T12:24:51.580Z,1.50
2023-01-29T12:27:26.184Z,1.81
2023-01-29T12:29:58.208Z,2.07
2023-01-29T12:32:31.042Z,2.41
2023-01-29T12:35:11.797Z,2.59
2023-01-29T12:37:45.352Z,2.59
2023-01-29T12:40:16.532Z,2.58
2023-01-29T12:42:46.870Z,2.50
2023-01-29T12:45:18.026Z,2.37
2023-01-29T12:47:47.818Z,2.31
2023-01-29T12:50:21.412Z,2.29
2023-01-29T12:52:51.177Z,2.24
2023-01-29T12:55:24.147Z,2.18
2023-01-29T12:57:51.046Z,2.07
2023-01-29T13:00:23.019Z,2.02
2023-01-29T13:02:53.382Z,2.01
2023-01-29T13:05:26.310Z,2.02
2023-01-29T13:08:08.472Z,2.07
2023-01-29T13:10:38.319Z,2.13
2023-01-29T13:13:28.620Z,2.12
2023-01-29T13:15:56.783Z,2.05
2023-01-29T13:18:23.615Z,1.97
2023-01-29T13:20:51.659Z,1.86
2023-01-29T13:23:23.043Z,1.74
2023-01-29T13:25:51.203Z,1.65
2023-01-29T13:28:20.403Z,1.58
2023-01-29T13:30:47.779Z,1.49
2023-01-29T13:33:21.560Z,1.40
2023-01-29T13:35:49.336Z,1.32
2023-01-29T13:38:36.436Z,1.26
2023-01-29T13:41:05.309Z,1.20
2023-01-29T13:43:36.667Z,1.18
2023-01-29T13:46:22.199Z,1.13
2023-01-29T13:48:51.264Z,1.09
2023-01-29T13:51:21.500Z,1.05
2023-01-29T13:53:57.580Z,0.98
2023-01-29T13:56:33.269Z,0.92
2023-01-29T13:59:01.563Z,0.86
2023-01-29T14:01:47.161Z,0.82
2023-01-29T14:04:21.914Z,0.80
2023-01-29T14:06:50.367Z,0.77
2023-01-29T14:09:36.213Z,0.73
2023-01-29T14:12:04.620Z,0.67
2023-01-29T14:15:10.616Z,0.99
2023-01-29T14:17:38.539Z,3.04
2023-01-29T14:20:19.070Z,4.61
2023-01-29T14:22:54.141Z,5.63
2023-01-29T14:25:23.420Z,6.40
2023-01-29T14:27:50.452Z,7.01
2023-01-29T14:30:19.285Z,6.85
2023-01-29T14:32:50.220Z,5.54
2023-01-29T14:35:24.582Z,4.36
2023-01-29T14:37:53.805Z,3.44
2023-01-29T14:40:23.016Z,2.79
2023-01-29T14:42:53.256Z,2.27
2023-01-29T14:45:23.017Z,1.80
2023-01-29T14:47:49.849Z,1.42
2023-01-29T14:50:23.099Z,1.10
2023-01-29T14:52:52.388Z,0.82
2023-01-29T14:55:26.315Z,0.58
2023-01-29T14:57:56.772Z,0.35
2023-01-29T15:00:27.404Z,0.17
2023-01-29T15:03:01.993Z,0.03
2023-01-29T15:05:36.438Z,-0.10
2023-01-29T15:08:16.593Z,-0.20
2023-01-29T15:10:46.307Z,-0.29
2023-01-29T15:13:25.118Z,-0.35
2023-01-29T15:16:14.960Z,-0.40
2023-01-29T15:18:43.424Z,-0.47
2023-01-29T15:21:14.903Z,-0.52
2023-01-29T15:23:42.539Z,-0.55
2023-01-29T15:26:16.642Z,-0.58
2023-01-29T15:28:47.236Z,-0.60
2023-01-29T15:31:18.868Z,-0.63
2023-01-29T15:33:47.112Z,-0.66
2023-01-29T15:36:20.764Z,-0.69
2023-01-29T15:38:47.604Z,-0.75
2023-01-29T15:41:19.431Z,-0.79
2023-01-29T15:43:50.636Z,-0.83
2023-01-29T15:46:20.537Z,-0.87
2023-01-29T15:48:49.349Z,-0.91
2023-01-29T15:51:17.920Z,-0.96
2023-01-29T15:53:48.667Z,-1.00
2023-01-29T15:56:17.832Z,-1.04
2023-01-29T15:58:47.266Z,-1.07
2023-01-29T16:01:14.882Z,-1.09
2023-01-29T16:03:42.546Z,-1.10
2023-01-29T16:06:10.135Z,-1.13
2023-01-29T16:08:39.093Z,-1.15
2023-01-29T16:11:07.231Z,-1.17
2023-01-29T16:13:36.427Z,-1.20
2023-01-29T16:16:08.779Z,-1.17
2023-01-29T16:18:39.496Z,0.04
2023-01-29T16:21:28.282Z,1.87
2023-01-29T16:24:23.341Z,3.31
2023-01-29T16:26:52.218Z,4.16
2023-01-29T16:29:21.767Z,4.73
2023-01-29T16:31:50.721Z,5.23
2023-01-29T16:34:29.344Z,5.52
2023-01-29T16:36:56.736Z,4.88
2023-01-29T16:39:24.905Z,3.48
2023-01-29T16:42:22.180Z,2.34
2023-01-29T16:45:07.765Z,1.37
2023-01-29T16:47:39.092Z,0.69
2023-01-29T16:50:09.361Z,0.19
2023-01-29T16:52:38.762Z,-0.21
2023-01-29T16:55:16.302Z,-0.51
2023-01-29T16:57:49.316Z,-0.77
2023-01-29T17:00:44.109Z,-0.97
2023-01-29T17:03:13.991Z,-1.14
2023-01-29T17:05:42.512Z,-1.26
2023-01-29T17:08:40.436Z,-1.36
2023-01-29T17:11:14.060Z,-1.46
2023-01-29T17:13:45.742Z,-1.54
2023-01-29T17:16:21.594Z,-1.60
2023-01-29T17:18:48.858Z,-1.65
2023-01-29T17:21:15.852Z,-1.70
2023-01-29T17:23:42.675Z,-1.72
2023-01-29T17:26:12.255Z,-1.74
2023-01-29T17:28:39.523Z,-1.75
2023-01-29T17:31:08.112Z,-1.75
2023-01-29T17:33:36.148Z,-1.75
2023-01-29T17:36:03.171Z,-1.74
2023-01-29T17:38:30.171Z,-1.73
2023-01-29T17:40:59.156Z,-1.72
2023-01-29T17:43:26.466Z,-1.71
2023-01-29T17:45:53.605Z,-1.37
2023-01-29T17:48:25.059Z,0.13
2023-01-29T17:50:54.147Z,1.66
2023-01-29T17:53:21.985Z,2.78
2023-01-29T17:55:49.346Z,3.60
2023-01-29T17:58:20.570Z,4.09
2023-01-29T18:00:48.289Z,4.45
2023-01-29T18:03:15.702Z,3.86
2023-01-29T18:05:44.251Z,2.62
2023-01-29T18:08:17.133Z,1.58
2023-01-29T18:10:44.386Z,0.82
2023-01-29T18:13:11.637Z,0.24
2023-01-29T18:15:38.691Z,-0.19
2023-01-29T18:18:06.032Z,-0.50
2023-01-29T18:20:37.009Z,-0.74
2023-01-29T18:23:04.617Z,-0.91
2023-01-29T18:25:31.777Z,-1.04
2023-01-29T18:27:58.822Z,-1.15
2023-01-29T18:30:25.873Z,-1.22
2023-01-29T18:32:53.841Z,-1.30
2023-01-29T18:35:21.411Z,-1.36
2023-01-29T18:37:48.551Z,-1.40
2023-01-29T18:40:17.630Z,-1.42
2023-01-29T18:42:47.753Z,-1.43
2023-01-29T18:45:15.971Z,-0.67
2023-01-29T18:47:43.250Z,1.05
2023-01-29T18:50:11.176Z,2.45
2023-01-29T18:52:38.537Z,3.38
2023-01-29T18:55:05.821Z,4.06
2023-01-29T18:58:26.248Z,4.40
2023-01-29T19:00:21.844Z,3.45
2023-01-29T19:02:48.684Z,2.30
2023-01-29T19:05:17.463Z,1.46
2023-01-29T19:07:44.530Z,0.76
2023-01-29T19:10:13.092Z,0.26
2023-01-29T19:12:43.179Z,-0.14
2023-01-29T19:15:10.266Z,-0.46
2023-01-29T19:17:37.329Z,-0.70
2023-01-29T19:20:05.296Z,-0.89
2023-01-29T19:22:32.729Z,-1.05
2023-01-29T19:24:59.781Z,-1.15
2023-01-29T19:27:30.853Z,-1.21
2023-01-29T19:29:58.702Z,-1.17
2023-01-29T19:32:29.411Z,-0.05
2023-01-29T19:34:58.052Z,1.62
2023-01-29T19:37:25.849Z,2.90
2023-01-29T19:39:54.220Z,3.72
2023-01-29T19:42:21.479Z,4.32
2023-01-29T19:44:48.732Z,4.81
2023-01-29T19:47:15.796Z,4.49
2023-01-29T19:49:42.933Z,3.30
2023-01-29T19:52:15.333Z,2.23
2023-01-29T19:54:49.300Z,1.44
2023-01-29T19:57:16.347Z,0.83
2023-01-29T19:59:45.665Z,0.35
2023-01-29T20:02:12.961Z,-0.07
2023-01-29T20:04:40.038Z,-0.37
2023-01-29T20:07:07.089Z,-0.62
2023-01-29T20:09:34.371Z,-0.81
2023-01-29T20:12:01.684Z,-0.95
2023-01-29T20:14:28.735Z,-1.07
2023-01-29T20:16:55.469Z,-1.18
2023-01-29T20:19:22.783Z,-1.26
2023-01-29T20:21:50.213Z,-1.32
2023-01-29T20:24:17.594Z,-1.37
2023-01-29T20:26:44.756Z,-1.23
2023-01-29T20:29:12.345Z,-0.01
2023-01-29T20:31:39.187Z,1.61
2023-01-29T20:34:06.020Z,2.79
2023-01-29T20:36:32.955Z,3.67
2023-01-29T20:39:00.014Z,4.37
2023-01-29T20:41:27.053Z,4.85
2023-01-29T20:43:53.969Z,5.27
2023-01-29T20:46:21.252Z,5.47
2023-01-29T20:48:49.675Z,4.48
2023-01-29T20:51:18.156Z,3.12
2023-01-29T20:53:46.346Z,2.05
2023-01-29T20:56:14.705Z,1.25
2023-01-29T20:58:41.720Z,0.65
2023-01-29T21:01:09.839Z,0.18
2023-01-29T21:03:37.176Z,-0.16
2023-01-29T21:06:04.264Z,-0.43
2023-01-29T21:08:31.569Z,-0.65
2023-01-29T21:10:58.690Z,-0.82
2023-01-29T21:13:25.799Z,-0.96
2023-01-29T21:15:52.953Z,-1.10
2023-01-29T21:18:19.800Z,-1.19
2023-01-29T21:20:47.043Z,-1.26
2023-01-29T21:23:13.892Z,-0.56
2023-01-29T21:25:41.677Z,0.90
2023-01-29T21:28:08.591Z,2.08
2023-01-29T21:30:35.790Z,3.04
2023-01-29T21:33:03.057Z,3.59
2023-01-29T21:35:30.030Z,3.00
2023-01-29T21:37:57.074Z,1.88
2023-01-29T21:40:27.336Z,1.02
2023-01-29T21:43:12.674Z,0.37
2023-01-29T21:45:40.283Z,-0.19
2023-01-29T21:48:07.477Z,-0.57
2023-01-29T21:50:34.731Z,-0.88
2023-01-29T21:53:01.791Z,-1.12
2023-01-29T21:55:28.707Z,-1.25
2023-01-29T21:57:55.761Z,-0.34
2023-01-29T22:00:22.925Z,1.24
2023-01-29T22:02:51.432Z,2.33
2023-01-29T22:05:20.175Z,3.20
2023-01-29T22:07:48.253Z,3.69
2023-01-29T22:10:16.536Z,3.10
2023-01-29T22:12:44.833Z,1.94
2023-01-29T22:15:12.148Z,1.02
2023-01-29T22:17:41.457Z,0.35
2023-01-29T22:20:12.488Z,-0.13
2023-01-29T22:22:39.320Z,-0.52
2023-01-29T22:25:06.258Z,-0.82
2023-01-29T22:27:33.910Z,-1.08
2023-01-29T22:30:00.659Z,-1.29
2023-01-29T22:32:27.557Z,-1.42
2023-01-29T22:34:54.506Z,-0.66
2023-01-29T22:37:21.284Z,0.81
2023-01-29T22:39:48.020Z,2.01
2023-01-29T22:42:14.768Z,2.99
2023-01-29T22:44:41.699Z,3.46
2023-01-29T22:47:08.446Z,2.74
2023-01-29T22:49:35.277Z,1.58
2023-01-29T22:52:10.865Z,0.69
2023-01-29T22:54:38.587Z,0.05
2023-01-29T22:57:05.941Z,-0.41
2023-01-29T22:59:33.192Z,-0.77
2023-01-29T23:02:00.210Z,-1.07
2023-01-29T23:04:27.153Z,-0.62
2023-01-29T23:06:54.119Z,0.81
2023-01-29T23:09:21.107Z,1.97
2023-01-29T23:11:47.999Z,2.69
2023-01-29T23:14:14.854Z,2.23
2023-01-29T23:16:42.128Z,1.18
2023-01-29T23:19:10.310Z,0.36
2023-01-29T23:21:37.648Z,-0.25
2023-01-29T23:24:06.220Z,-0.70
2023-01-29T23:26:52.496Z,-1.05
2023-01-29T23:29:19.418Z,-1.36
2023-01-29T23:31:46.319Z,-1.46
2023-01-29T23:34:14.362Z,-0.59
2023-01-29T23:36:41.414Z,0.76
2023-01-29T23:39:08.643Z,1.76
2023-01-29T23:41:35.795Z,1.94
2023-01-29T23:44:02.830Z,1.10
2023-01-29T23:46:29.833Z,0.17
2023-01-29T23:48:57.168Z,-0.48
2023-01-29T23:51:24.583Z,-0.96
2023-01-29T23:53:51.578Z,-1.31
2023-01-29T23:56:18.612Z,-1.56
2023-01-29T23:58:46.075Z,-0.96
